sensor_id;sensor_type;location;lat;lon;timestamp;pressure;altitude;pressure_sealevel;temperature;humidity
39177;BME280;24904;52.208;21.192;2022-07-26T00:01:37;100007.31;;;18.76;61.53
39177;BME280;24904;52.208;21.192;2022-07-26T00:06:40;100003.73;;;18.70;61.77
39177;BME280;24904;52.208;21.192;2022-07-26T00:11:43;100002.42;;;18.68;61.94
39177;BME280;24904;52.208;21.192;2022-07-26T00:16:47;99993.04;;;18.63;62.14
39177;BME280;24904;52.208;21.192;2022-07-26T00:21:50;99976.66;;;18.57;62.24
39177;BME280;24904;52.208;21.192;2022-07-26T00:27:13;99959.58;;;18.54;62.39
39177;BME280;24904;52.208;21.192;2022-07-26T00:32:16;99961.84;;;18.50;62.48
39177;BME280;24904;52.208;21.192;2022-07-26T00:37:19;99956.23;;;18.44;62.72
39177;BME280;24904;52.208;21.192;2022-07-26T00:42:22;99947.95;;;18.39;62.82
39177;BME280;24904;52.208;21.192;2022-07-26T00:47:26;99937.66;;;18.34;62.89
39177;BME280;24904;52.208;21.192;2022-07-26T00:52:29;99940.55;;;18.34;63.10
39177;BME280;24904;52.208;21.192;2022-07-26T00:57:32;99933.87;;;18.31;63.13
39177;BME280;24904;52.208;21.192;2022-07-26T01:02:37;99937.95;;;18.30;63.33
39177;BME280;24904;52.208;21.192;2022-07-26T01:07:40;99937.51;;;18.28;63.40
39177;BME280;24904;52.208;21.192;2022-07-26T01:12:44;99944.86;;;18.26;63.50
39177;BME280;24904;52.208;21.192;2022-07-26T01:17:47;99937.61;;;18.27;63.61
39177;BME280;24904;52.208;21.192;2022-07-26T01:22:50;99923.45;;;18.25;63.41
39177;BME280;24904;52.208;21.192;2022-07-26T01:27:54;99921.08;;;18.20;63.73
39177;BME280;24904;52.208;21.192;2022-07-26T01:32:57;99918.12;;;18.14;63.78
39177;BME280;24904;52.208;21.192;2022-07-26T01:38:00;99914.27;;;18.09;63.96
39177;BME280;24904;52.208;21.192;2022-07-26T01:43:03;99915.31;;;18.06;64.10
39177;BME280;24904;52.208;21.192;2022-07-26T01:48:06;99911.13;;;18.06;64.18
39177;BME280;24904;52.208;21.192;2022-07-26T01:53:10;99917.58;;;18.02;64.26
39177;BME280;24904;52.208;21.192;2022-07-26T01:58:13;99924.09;;;17.98;64.27
39177;BME280;24904;52.208;21.192;2022-07-26T02:03:16;99929.53;;;17.97;64.42
39177;BME280;24904;52.208;21.192;2022-07-26T02:08:19;99921.95;;;17.90;64.55
39177;BME280;24904;52.208;21.192;2022-07-26T02:13:22;99921.04;;;17.79;64.80
39177;BME280;24904;52.208;21.192;2022-07-26T02:18:26;99918.60;;;17.72;65.08
39177;BME280;24904;52.208;21.192;2022-07-26T02:23:30;99906.34;;;17.67;65.21
39177;BME280;24904;52.208;21.192;2022-07-26T02:28:33;99896.37;;;17.59;65.35
39177;BME280;24904;52.208;21.192;2022-07-26T02:33:36;99899.08;;;17.52;65.51
39177;BME280;24904;52.208;21.192;2022-07-26T02:38:39;99908.27;;;17.46;65.78
39177;BME280;24904;52.208;21.192;2022-07-26T02:43:43;99908.17;;;17.42;65.92
39177;BME280;24904;52.208;21.192;2022-07-26T02:48:46;99894.15;;;17.36;66.09
39177;BME280;24904;52.208;21.192;2022-07-26T02:53:49;99880.52;;;17.29;66.35
39177;BME280;24904;52.208;21.192;2022-07-26T02:58:52;99874.08;;;17.24;66.56
39177;BME280;24904;52.208;21.192;2022-07-26T03:03:55;99861.14;;;17.21;66.76
39177;BME280;24904;52.208;21.192;2022-07-26T03:08:59;99857.36;;;17.20;66.85
39177;BME280;24904;52.208;21.192;2022-07-26T03:14:02;99845.42;;;17.19;67.07
39177;BME280;24904;52.208;21.192;2022-07-26T03:19:05;99843.61;;;17.18;67.19
39177;BME280;24904;52.208;21.192;2022-07-26T03:24:08;99849.66;;;17.21;67.10
39177;BME280;24904;52.208;21.192;2022-07-26T03:29:12;99851.23;;;17.25;67.19
39177;BME280;24904;52.208;21.192;2022-07-26T03:34:15;99843.60;;;17.28;67.37
39177;BME280;24904;52.208;21.192;2022-07-26T03:39:18;99842.79;;;17.36;67.41
39177;BME280;24904;52.208;21.192;2022-07-26T03:44:21;99845.13;;;17.46;67.36
39177;BME280;24904;52.208;21.192;2022-07-26T03:49:24;99844.05;;;17.57;67.11
39177;BME280;24904;52.208;21.192;2022-07-26T03:54:27;99851.18;;;17.67;66.85
39177;BME280;24904;52.208;21.192;2022-07-26T03:59:30;99850.53;;;17.75;66.80
39177;BME280;24904;52.208;21.192;2022-07-26T04:04:33;99840.34;;;17.82;66.84
39177;BME280;24904;52.208;21.192;2022-07-26T04:09:36;99828.46;;;17.90;66.77
39177;BME280;24904;52.208;21.192;2022-07-26T04:14:40;99831.80;;;17.98;66.74
39177;BME280;24904;52.208;21.192;2022-07-26T04:19:43;99827.68;;;18.07;66.85
39177;BME280;24904;52.208;21.192;2022-07-26T04:24:46;99814.77;;;18.17;66.83
39177;BME280;24904;52.208;21.192;2022-07-26T04:29:50;99801.46;;;18.26;66.77
39177;BME280;24904;52.208;21.192;2022-07-26T04:34:53;99792.48;;;18.37;66.80
39177;BME280;24904;52.208;21.192;2022-07-26T04:39:56;99791.35;;;18.48;66.50
39177;BME280;24904;52.208;21.192;2022-07-26T04:44:59;99792.86;;;18.59;66.43
39177;BME280;24904;52.208;21.192;2022-07-26T04:50:03;99790.45;;;18.71;66.34
39177;BME280;24904;52.208;21.192;2022-07-26T04:55:08;99795.81;;;18.82;66.22
39177;BME280;24904;52.208;21.192;2022-07-26T05:00:14;99801.13;;;18.92;65.95
39177;BME280;24904;52.208;21.192;2022-07-26T05:05:18;99793.23;;;19.03;65.81
39177;BME280;24904;52.208;21.192;2022-07-26T05:10:27;99795.20;;;19.13;66.04
39177;BME280;24904;52.208;21.192;2022-07-26T05:15:32;99809.77;;;19.25;65.87
39177;BME280;24904;52.208;21.192;2022-07-26T05:20:36;99797.81;;;19.37;65.79
39177;BME280;24904;52.208;21.192;2022-07-26T05:25:40;99794.66;;;19.46;65.57
39177;BME280;24904;52.208;21.192;2022-07-26T05:30:43;99799.92;;;19.54;65.72
39177;BME280;24904;52.208;21.192;2022-07-26T05:35:47;99797.02;;;19.63;65.56
39177;BME280;24904;52.208;21.192;2022-07-26T05:40:50;99788.17;;;19.75;65.51
39177;BME280;24904;52.208;21.192;2022-07-26T05:45:54;99779.98;;;19.90;65.56
39177;BME280;24904;52.208;21.192;2022-07-26T05:50:57;99778.05;;;20.10;65.22
39177;BME280;24904;52.208;21.192;2022-07-26T05:56:01;99776.60;;;20.29;64.75
39177;BME280;24904;52.208;21.192;2022-07-26T06:01:04;99772.10;;;20.48;64.66
39177;BME280;24904;52.208;21.192;2022-07-26T06:06:08;99768.96;;;20.67;64.35
39177;BME280;24904;52.208;21.192;2022-07-26T06:11:11;99772.50;;;20.86;64.04
39177;BME280;24904;52.208;21.192;2022-07-26T06:16:14;99767.02;;;21.05;63.44
39177;BME280;24904;52.208;21.192;2022-07-26T06:21:17;99769.08;;;21.24;62.87
39177;BME280;24904;52.208;21.192;2022-07-26T06:26:20;99770.18;;;21.51;62.01
39177;BME280;24904;52.208;21.192;2022-07-26T06:31:25;99759.73;;;21.76;60.74
39177;BME280;24904;52.208;21.192;2022-07-26T06:36:28;99752.38;;;22.02;60.01
39177;BME280;24904;52.208;21.192;2022-07-26T06:41:31;99751.38;;;22.25;59.26
39177;BME280;24904;52.208;21.192;2022-07-26T06:46:34;99745.21;;;22.46;58.83
39177;BME280;24904;52.208;21.192;2022-07-26T06:51:37;99745.40;;;22.65;57.86
39177;BME280;24904;52.208;21.192;2022-07-26T06:56:40;99738.59;;;22.87;57.59
39177;BME280;24904;52.208;21.192;2022-07-26T07:01:44;99731.45;;;23.10;57.05
39177;BME280;24904;52.208;21.192;2022-07-26T07:06:47;99724.13;;;23.33;56.31
39177;BME280;24904;52.208;21.192;2022-07-26T07:11:50;99712.73;;;23.60;55.53
39177;BME280;24904;52.208;21.192;2022-07-26T07:16:53;99709.95;;;23.83;55.17
39177;BME280;24904;52.208;21.192;2022-07-26T07:21:57;99712.52;;;24.01;54.34
39177;BME280;24904;52.208;21.192;2022-07-26T07:27:00;99717.09;;;24.16;53.77
39177;BME280;24904;52.208;21.192;2022-07-26T07:32:04;99728.72;;;24.33;53.44
39177;BME280;24904;52.208;21.192;2022-07-26T07:37:07;99739.68;;;24.52;53.26
39177;BME280;24904;52.208;21.192;2022-07-26T07:42:11;99731.92;;;24.69;52.70
39177;BME280;24904;52.208;21.192;2022-07-26T07:47:14;99737.32;;;24.89;52.00
39177;BME280;24904;52.208;21.192;2022-07-26T07:52:18;99748.36;;;25.11;51.92
39177;BME280;24904;52.208;21.192;2022-07-26T07:57:21;99742.88;;;25.34;51.67
39177;BME280;24904;52.208;21.192;2022-07-26T08:02:24;99724.89;;;25.57;51.31
39177;BME280;24904;52.208;21.192;2022-07-26T08:07:28;99724.80;;;25.76;51.16
39177;BME280;24904;52.208;21.192;2022-07-26T08:12:31;99723.25;;;25.79;50.63
39177;BME280;24904;52.208;21.192;2022-07-26T08:17:34;99731.17;;;25.79;50.63
39177;BME280;24904;52.208;21.192;2022-07-26T08:22:37;99726.03;;;25.81;50.09
39177;BME280;24904;52.208;21.192;2022-07-26T08:27:40;99719.77;;;25.86;50.05
39177;BME280;24904;52.208;21.192;2022-07-26T08:32:43;99722.92;;;25.89;49.78
39177;BME280;24904;52.208;21.192;2022-07-26T08:37:46;99718.85;;;25.90;49.93
39177;BME280;24904;52.208;21.192;2022-07-26T08:42:52;99713.29;;;25.90;49.72
39177;BME280;24904;52.208;21.192;2022-07-26T08:47:58;99714.41;;;25.96;49.21
39177;BME280;24904;52.208;21.192;2022-07-26T08:53:03;99710.60;;;26.05;49.01
39177;BME280;24904;52.208;21.192;2022-07-26T08:58:10;99705.91;;;26.13;48.83
39177;BME280;24904;52.208;21.192;2022-07-26T09:03:25;99708.58;;;26.20;48.63
39177;BME280;24904;52.208;21.192;2022-07-26T09:08:28;99710.73;;;26.34;47.93
39177;BME280;24904;52.208;21.192;2022-07-26T09:13:49;99711.85;;;26.45;47.60
39177;BME280;24904;52.208;21.192;2022-07-26T09:18:53;99713.35;;;26.54;47.53
39177;BME280;24904;52.208;21.192;2022-07-26T09:23:57;99718.39;;;26.65;46.68
39177;BME280;24904;52.208;21.192;2022-07-26T09:29:07;99727.92;;;26.75;46.66
39177;BME280;24904;52.208;21.192;2022-07-26T09:34:10;99735.09;;;26.85;46.61
39177;BME280;24904;52.208;21.192;2022-07-26T09:39:13;99736.48;;;26.94;46.82
39177;BME280;24904;52.208;21.192;2022-07-26T09:44:26;99749.22;;;27.05;47.30
39177;BME280;24904;52.208;21.192;2022-07-26T09:49:29;99750.26;;;27.09;47.78
39177;BME280;24904;52.208;21.192;2022-07-26T09:54:34;99755.50;;;27.13;47.91
39177;BME280;24904;52.208;21.192;2022-07-26T09:59:38;99756.16;;;27.12;47.61
39177;BME280;24904;52.208;21.192;2022-07-26T10:04:42;99759.74;;;27.09;47.79
39177;BME280;24904;52.208;21.192;2022-07-26T10:09:49;99754.15;;;27.06;47.71
39177;BME280;24904;52.208;21.192;2022-07-26T10:14:55;99751.17;;;27.05;48.10
39177;BME280;24904;52.208;21.192;2022-07-26T10:20:00;99751.02;;;27.06;48.10
39177;BME280;24904;52.208;21.192;2022-07-26T10:30:37;99763.45;;;27.13;48.21
39177;BME280;24904;52.208;21.192;2022-07-26T10:35:41;99768.86;;;27.08;47.99
39177;BME280;24904;52.208;21.192;2022-07-26T10:40:57;99763.57;;;27.05;48.62
39177;BME280;24904;52.208;21.192;2022-07-26T10:46:24;99767.56;;;27.05;48.82
39177;BME280;24904;52.208;21.192;2022-07-26T10:51:32;99772.58;;;27.04;49.12
39177;BME280;24904;52.208;21.192;2022-07-26T10:56:37;99765.94;;;27.02;49.34
39177;BME280;24904;52.208;21.192;2022-07-26T11:01:42;99764.82;;;26.96;49.48
39177;BME280;24904;52.208;21.192;2022-07-26T11:06:46;99771.96;;;26.90;49.81
39177;BME280;24904;52.208;21.192;2022-07-26T11:11:49;99776.29;;;26.88;49.93
39177;BME280;24904;52.208;21.192;2022-07-26T11:16:53;99784.32;;;26.87;50.37
39177;BME280;24904;52.208;21.192;2022-07-26T11:21:58;99785.39;;;26.93;50.36
39177;BME280;24904;52.208;21.192;2022-07-26T11:27:03;99790.85;;;27.03;50.70
39177;BME280;24904;52.208;21.192;2022-07-26T11:32:15;99796.89;;;27.11;50.02
39177;BME280;24904;52.208;21.192;2022-07-26T11:37:19;99809.07;;;27.06;50.10
39177;BME280;24904;52.208;21.192;2022-07-26T11:42:22;99812.65;;;27.01;49.94
39177;BME280;24904;52.208;21.192;2022-07-26T11:47:25;99824.65;;;26.88;49.30
39177;BME280;24904;52.208;21.192;2022-07-26T11:52:30;99831.56;;;26.67;49.20
39177;BME280;24904;52.208;21.192;2022-07-26T11:57:33;99845.50;;;26.46;49.71
39177;BME280;24904;52.208;21.192;2022-07-26T12:02:36;99852.98;;;26.22;49.28
39177;BME280;24904;52.208;21.192;2022-07-26T12:07:52;99854.20;;;25.93;49.41
39177;BME280;24904;52.208;21.192;2022-07-26T12:13:11;99857.16;;;25.67;49.77
39177;BME280;24904;52.208;21.192;2022-07-26T12:18:22;99862.63;;;25.41;49.85
39177;BME280;24904;52.208;21.192;2022-07-26T12:23:26;99865.74;;;25.06;49.36
39177;BME280;24904;52.208;21.192;2022-07-26T12:28:41;99870.07;;;24.64;49.42
39177;BME280;24904;52.208;21.192;2022-07-26T12:33:48;99881.52;;;24.33;49.95
39177;BME280;24904;52.208;21.192;2022-07-26T12:38:51;99876.23;;;24.08;50.59
39177;BME280;24904;52.208;21.192;2022-07-26T12:43:54;99870.23;;;23.88;51.22
39177;BME280;24904;52.208;21.192;2022-07-26T12:48:58;99876.02;;;23.72;51.90
39177;BME280;24904;52.208;21.192;2022-07-26T12:54:01;99887.54;;;23.52;52.49
39177;BME280;24904;52.208;21.192;2022-07-26T12:59:04;99893.61;;;23.29;53.40
39177;BME280;24904;52.208;21.192;2022-07-26T13:04:07;99903.70;;;23.07;54.40
39177;BME280;24904;52.208;21.192;2022-07-26T13:09:11;99907.54;;;22.80;55.45
39177;BME280;24904;52.208;21.192;2022-07-26T13:14:14;99918.30;;;22.60;56.74
39177;BME280;24904;52.208;21.192;2022-07-26T13:19:17;99927.83;;;22.45;57.54
39177;BME280;24904;52.208;21.192;2022-07-26T13:24:21;99935.92;;;22.30;59.12
39177;BME280;24904;52.208;21.192;2022-07-26T13:29:24;99940.62;;;21.97;61.84
39177;BME280;24904;52.208;21.192;2022-07-26T13:34:28;99950.77;;;21.54;63.68
39177;BME280;24904;52.208;21.192;2022-07-26T13:39:31;99958.95;;;21.24;65.31
39177;BME280;24904;52.208;21.192;2022-07-26T13:44:34;99967.13;;;21.02;66.57
39177;BME280;24904;52.208;21.192;2022-07-26T13:49:37;99968.41;;;20.88;67.85
39177;BME280;24904;52.208;21.192;2022-07-26T13:54:40;99967.73;;;20.74;68.95
39177;BME280;24904;52.208;21.192;2022-07-26T13:59:44;99959.01;;;20.64;70.02
39177;BME280;24904;52.208;21.192;2022-07-26T14:04:47;99959.39;;;20.58;70.67
39177;BME280;24904;52.208;21.192;2022-07-26T14:09:50;99961.04;;;20.52;71.45
39177;BME280;24904;52.208;21.192;2022-07-26T14:14:53;99967.45;;;20.47;72.03
39177;BME280;24904;52.208;21.192;2022-07-26T14:19:56;99975.19;;;20.42;72.64
39177;BME280;24904;52.208;21.192;2022-07-26T14:24:59;99980.24;;;20.40;73.46
39177;BME280;24904;52.208;21.192;2022-07-26T14:30:02;99991.21;;;20.36;73.90
39177;BME280;24904;52.208;21.192;2022-07-26T14:35:07;99989.89;;;20.33;74.41
39177;BME280;24904;52.208;21.192;2022-07-26T14:40:13;99988.80;;;20.30;74.90
39177;BME280;24904;52.208;21.192;2022-07-26T14:45:17;99987.51;;;20.28;75.23
39177;BME280;24904;52.208;21.192;2022-07-26T14:50:20;99984.70;;;20.24;75.39
39177;BME280;24904;52.208;21.192;2022-07-26T14:55:24;99993.02;;;20.19;75.54
39177;BME280;24904;52.208;21.192;2022-07-26T15:00:30;100001.14;;;20.14;75.84
39177;BME280;24904;52.208;21.192;2022-07-26T15:05:35;100006.48;;;20.11;76.05
39177;BME280;24904;52.208;21.192;2022-07-26T15:10:38;100015.54;;;20.09;76.27
39177;BME280;24904;52.208;21.192;2022-07-26T15:15:42;100021.14;;;20.06;76.72
39177;BME280;24904;52.208;21.192;2022-07-26T15:20:45;100022.98;;;20.01;76.66
39177;BME280;24904;52.208;21.192;2022-07-26T15:25:48;100022.48;;;19.95;76.81
39177;BME280;24904;52.208;21.192;2022-07-26T15:30:51;100023.09;;;19.91;77.06
39177;BME280;24904;52.208;21.192;2022-07-26T15:35:54;100018.66;;;19.90;77.41
39177;BME280;24904;52.208;21.192;2022-07-26T15:40:57;100022.59;;;19.90;77.69
39177;BME280;24904;52.208;21.192;2022-07-26T15:46:01;100021.50;;;19.84;77.53
39177;BME280;24904;52.208;21.192;2022-07-26T15:51:04;100029.95;;;19.78;77.56
39177;BME280;24904;52.208;21.192;2022-07-26T15:56:07;100043.57;;;19.78;77.53
39177;BME280;24904;52.208;21.192;2022-07-26T16:01:10;100047.11;;;19.74;77.54
39177;BME280;24904;52.208;21.192;2022-07-26T16:06:14;100053.15;;;19.67;77.44
39177;BME280;24904;52.208;21.192;2022-07-26T16:11:17;100054.98;;;19.59;77.42
39177;BME280;24904;52.208;21.192;2022-07-26T16:16:21;100059.09;;;19.49;77.55
39177;BME280;24904;52.208;21.192;2022-07-26T16:21:24;100071.44;;;19.43;77.78
39177;BME280;24904;52.208;21.192;2022-07-26T16:26:27;100078.93;;;19.37;77.22
39177;BME280;24904;52.208;21.192;2022-07-26T16:31:30;100089.41;;;19.33;77.28
39177;BME280;24904;52.208;21.192;2022-07-26T16:36:34;100104.33;;;19.28;77.34
39177;BME280;24904;52.208;21.192;2022-07-26T16:41:37;100107.05;;;19.22;77.55
39177;BME280;24904;52.208;21.192;2022-07-26T16:46:40;100109.38;;;19.16;77.41
39177;BME280;24904;52.208;21.192;2022-07-26T16:51:43;100112.20;;;19.11;77.52
39177;BME280;24904;52.208;21.192;2022-07-26T16:56:46;100112.91;;;19.06;77.74
39177;BME280;24904;52.208;21.192;2022-07-26T17:01:49;100123.24;;;19.00;77.74
39177;BME280;24904;52.208;21.192;2022-07-26T17:06:52;100126.95;;;18.95;77.74
39177;BME280;24904;52.208;21.192;2022-07-26T17:11:55;100123.89;;;18.85;78.04
39177;BME280;24904;52.208;21.192;2022-07-26T17:16:59;100135.09;;;18.86;78.21
39177;BME280;24904;52.208;21.192;2022-07-26T17:22:02;100126.41;;;18.77;78.35
39177;BME280;24904;52.208;21.192;2022-07-26T17:27:05;100114.83;;;18.67;78.39
39177;BME280;24904;52.208;21.192;2022-07-26T17:32:08;100111.55;;;18.61;78.63
39177;BME280;24904;52.208;21.192;2022-07-26T17:37:12;100106.23;;;18.57;78.82
39177;BME280;24904;52.208;21.192;2022-07-26T17:42:15;100102.70;;;18.55;79.13
39177;BME280;24904;52.208;21.192;2022-07-26T17:47:19;100100.81;;;18.52;79.35
39177;BME280;24904;52.208;21.192;2022-07-26T17:52:22;100098.48;;;18.53;79.65
39177;BME280;24904;52.208;21.192;2022-07-26T17:57:25;100096.14;;;18.51;79.93
39177;BME280;24904;52.208;21.192;2022-07-26T18:02:28;100086.54;;;18.48;80.04
39177;BME280;24904;52.208;21.192;2022-07-26T18:07:32;100086.86;;;18.48;80.30
39177;BME280;24904;52.208;21.192;2022-07-26T18:12:35;100086.43;;;18.46;80.37
39177;BME280;24904;52.208;21.192;2022-07-26T18:17:38;100083.16;;;18.43;80.66
39177;BME280;24904;52.208;21.192;2022-07-26T18:22:41;100079.23;;;18.41;80.97
39177;BME280;24904;52.208;21.192;2022-07-26T18:27:44;100074.20;;;18.43;81.20
39177;BME280;24904;52.208;21.192;2022-07-26T18:32:47;100073.09;;;18.43;81.28
39177;BME280;24904;52.208;21.192;2022-07-26T18:37:51;100079.59;;;18.42;81.40
39177;BME280;24904;52.208;21.192;2022-07-26T18:42:54;100080.23;;;18.42;81.46
39177;BME280;24904;52.208;21.192;2022-07-26T18:47:57;100084.27;;;18.43;81.70
39177;BME280;24904;52.208;21.192;2022-07-26T18:53:00;100085.69;;;18.45;81.89
39177;BME280;24904;52.208;21.192;2022-07-26T18:58:03;100081.70;;;18.45;82.07
39177;BME280;24904;52.208;21.192;2022-07-26T19:03:07;100088.47;;;18.44;82.26
39177;BME280;24904;52.208;21.192;2022-07-26T19:08:10;100089.79;;;18.46;82.39
39177;BME280;24904;52.208;21.192;2022-07-26T19:13:13;100093.35;;;18.46;82.60
39177;BME280;24904;52.208;21.192;2022-07-26T19:18:16;100092.48;;;18.46;82.71
39177;BME280;24904;52.208;21.192;2022-07-26T19:23:19;100085.84;;;18.45;82.78
39177;BME280;24904;52.208;21.192;2022-07-26T19:28:22;100086.16;;;18.45;82.95
39177;BME280;24904;52.208;21.192;2022-07-26T19:33:25;100085.85;;;18.44;82.89
39177;BME280;24904;52.208;21.192;2022-07-26T19:38:28;100086.84;;;18.42;83.01
39177;BME280;24904;52.208;21.192;2022-07-26T19:43:34;100088.08;;;18.40;83.13
39177;BME280;24904;52.208;21.192;2022-07-26T19:48:37;100085.25;;;18.36;83.12
39177;BME280;24904;52.208;21.192;2022-07-26T19:53:40;100088.06;;;18.35;83.31
39177;BME280;24904;52.208;21.192;2022-07-26T19:58:45;100085.36;;;18.37;83.27
39177;BME280;24904;52.208;21.192;2022-07-26T20:03:48;100076.15;;;18.35;83.30
39177;BME280;24904;52.208;21.192;2022-07-26T20:08:52;100075.52;;;18.32;83.30
39177;BME280;24904;52.208;21.192;2022-07-26T20:13:55;100081.20;;;18.30;83.26
39177;BME280;24904;52.208;21.192;2022-07-26T20:18:58;100087.84;;;18.32;83.36
39177;BME280;24904;52.208;21.192;2022-07-26T20:24:01;100088.90;;;18.30;83.39
39177;BME280;24904;52.208;21.192;2022-07-26T20:29:05;100091.48;;;18.25;83.52
39177;BME280;24904;52.208;21.192;2022-07-26T20:34:09;100085.37;;;18.22;83.49
39177;BME280;24904;52.208;21.192;2022-07-26T20:39:13;100092.80;;;18.23;83.47
39177;BME280;24904;52.208;21.192;2022-07-26T20:44:16;100095.98;;;18.23;83.35
39177;BME280;24904;52.208;21.192;2022-07-26T20:49:19;100092.77;;;18.19;83.34
39177;BME280;24904;52.208;21.192;2022-07-26T20:54:22;100096.69;;;18.13;83.40
39177;BME280;24904;52.208;21.192;2022-07-26T20:59:25;100107.19;;;18.09;83.50
39177;BME280;24904;52.208;21.192;2022-07-26T21:04:28;100110.61;;;18.09;83.65
39177;BME280;24904;52.208;21.192;2022-07-26T21:09:33;100116.08;;;18.03;83.68
39177;BME280;24904;52.208;21.192;2022-07-26T21:14:36;100113.73;;;18.00;83.70
39177;BME280;24904;52.208;21.192;2022-07-26T21:19:39;100118.42;;;17.97;83.85
39177;BME280;24904;52.208;21.192;2022-07-26T21:24:42;100115.79;;;17.95;83.85
39177;BME280;24904;52.208;21.192;2022-07-26T21:29:46;100115.74;;;17.94;83.97
39177;BME280;24904;52.208;21.192;2022-07-26T21:34:49;100113.71;;;17.92;83.99
39177;BME280;24904;52.208;21.192;2022-07-26T21:39:52;100120.53;;;17.89;83.96
39177;BME280;24904;52.208;21.192;2022-07-26T21:44:55;100122.41;;;17.86;83.95
39177;BME280;24904;52.208;21.192;2022-07-26T21:49:58;100126.55;;;17.79;83.49
39177;BME280;24904;52.208;21.192;2022-07-26T21:55:02;100126.52;;;17.68;83.21
39177;BME280;24904;52.208;21.192;2022-07-26T22:00:07;100130.68;;;17.59;83.17
39177;BME280;24904;52.208;21.192;2022-07-26T22:05:10;100132.03;;;17.51;83.09
39177;BME280;24904;52.208;21.192;2022-07-26T22:10:32;100132.98;;;17.43;83.09
39177;BME280;24904;52.208;21.192;2022-07-26T22:15:36;100135.39;;;17.35;83.29
39177;BME280;24904;52.208;21.192;2022-07-26T22:20:40;100138.70;;;17.32;83.26
39177;BME280;24904;52.208;21.192;2022-07-26T22:25:43;100138.36;;;17.25;83.07
39177;BME280;24904;52.208;21.192;2022-07-26T22:30:46;100138.36;;;17.17;83.18
39177;BME280;24904;52.208;21.192;2022-07-26T22:35:49;100136.66;;;17.10;83.18
39177;BME280;24904;52.208;21.192;2022-07-26T22:40:52;100139.96;;;17.04;83.13
39177;BME280;24904;52.208;21.192;2022-07-26T22:45:55;100143.42;;;16.96;82.98
39177;BME280;24904;52.208;21.192;2022-07-26T22:50:58;100145.64;;;16.87;83.06
39177;BME280;24904;52.208;21.192;2022-07-26T22:56:01;100146.34;;;16.80;83.18
39177;BME280;24904;52.208;21.192;2022-07-26T23:01:05;100144.10;;;16.78;83.18
39177;BME280;24904;52.208;21.192;2022-07-26T23:06:08;100144.96;;;16.72;83.21
39177;BME280;24904;52.208;21.192;2022-07-26T23:11:11;100143.46;;;16.68;82.83
39177;BME280;24904;52.208;21.192;2022-07-26T23:16:14;100140.97;;;16.59;82.85
39177;BME280;24904;52.208;21.192;2022-07-26T23:21:17;100141.18;;;16.52;82.67
39177;BME280;24904;52.208;21.192;2022-07-26T23:26:20;100148.52;;;16.43;83.01
39177;BME280;24904;52.208;21.192;2022-07-26T23:31:23;100151.27;;;16.40;83.02
39177;BME280;24904;52.208;21.192;2022-07-26T23:36:28;100163.36;;;16.41;83.38
39177;BME280;24904;52.208;21.192;2022-07-26T23:41:31;100163.92;;;16.41;83.20
39177;BME280;24904;52.208;21.192;2022-07-26T23:46:34;100160.15;;;16.35;83.25
39177;BME280;24904;52.208;21.192;2022-07-26T23:51:37;100159.04;;;16.29;83.17
39177;BME280;24904;52.208;21.192;2022-07-26T23:56:40;100159.56;;;16.26;83.44
